Time;durP1;ratioP1;P1;durP2;ratioP2;P2;SDS_P1;SDS_P2;PMS_P1;PMS_P2;Temp;Humidity;BMP_temperature;BMP_pressure;BME280_temperature;BME280_humidity;BME280_pressure;Samples;Min_cycle;Max_cycle;Signal;HPM_P1;HPM_P2
2023/07/20 00:01:26;;;;;;;4.07;3.67;;;19.50;99.90;;;;;;5045356;28;20973;-66
2023/07/20 00:03:55;;;;;;;3.63;3.33;;;19.60;99.90;;;;;;5041535;28;20183;-66
2023/07/20 00:06:25;;;;;;;3.53;2.70;;;19.60;99.90;;;;;;5043296;28;20176;-66
2023/07/20 00:08:51;;;;;;;3.97;2.93;;;19.50;99.90;;;;;;5043213;28;20991;-66
2023/07/20 00:11:17;;;;;;;3.03;2.83;;;19.50;99.90;;;;;;5048884;28;21003;-66
2023/07/20 00:13:43;;;;;;;3.63;3.33;;;19.40;99.90;;;;;;5047425;28;20526;-66
2023/07/20 00:16:08;;;;;;;3.70;3.40;;;19.40;99.90;;;;;;5044343;28;20999;-66
2023/07/20 00:18:34;;;;;;;8.70;3.53;;;19.40;99.90;;;;;;5042915;28;20170;-66
2023/07/20 00:20:59;;;;;;;4.10;3.33;;;19.40;99.90;;;;;;5046033;28;20726;-66
2023/07/20 00:23:25;;;;;;;4.10;3.13;;;19.30;99.90;;;;;;5043959;28;20183;-66
2023/07/20 00:25:52;;;;;;;4.07;3.40;;;19.20;99.90;;;;;;5040484;28;20181;-66
2023/07/20 00:28:17;;;;;;;3.17;2.87;;;19.20;99.90;;;;;;5049288;28;21002;-66
2023/07/20 00:30:43;;;;;;;3.70;3.40;;;19.20;99.90;;;;;;5047875;28;20455;-66
2023/07/20 00:33:11;;;;;;;3.43;3.13;;;19.10;99.90;;;;;;5046803;28;20188;-66
2023/07/20 00:35:40;;;;;;;3.67;2.80;;;19.00;99.90;;;;;;5048392;28;20256;-66
2023/07/20 00:38:06;;;;;;;3.87;3.07;;;19.00;99.90;;;;;;5047903;28;20427;-66
2023/07/20 00:40:38;;;;;;;3.90;3.57;;;19.00;99.90;;;;;;5046541;28;20520;-66
2023/07/20 00:43:04;;;;;;;4.07;3.37;;;19.00;99.90;;;;;;5049420;28;20177;-66
2023/07/20 00:45:31;;;;;;;3.70;3.40;;;19.10;99.90;;;;;;5044009;28;20455;-66
2023/07/20 00:47:57;;;;;;;3.37;3.07;;;19.10;99.90;;;;;;5048496;28;20879;-66
2023/07/20 00:50:24;;;;;;;4.53;4.00;;;19.10;99.90;;;;;;5045257;28;20447;-66
2023/07/20 00:52:50;;;;;;;5.00;2.87;;;19.00;99.90;;;;;;5038906;28;20809;-66
2023/07/20 00:55:15;;;;;;;3.40;3.10;;;19.00;99.90;;;;;;5048644;28;20434;-66
2023/07/20 00:57:41;;;;;;;4.40;4.00;;;19.00;99.90;;;;;;5047412;28;20173;-66
2023/07/20 01:00:07;;;;;;;3.40;3.10;;;18.90;99.90;;;;;;5049218;28;20686;-66
2023/07/20 01:02:33;;;;;;;4.27;3.20;;;18.70;99.90;;;;;;5045664;28;20627;-66
2023/07/20 01:04:58;;;;;;;3.50;3.20;;;18.60;99.90;;;;;;5045298;28;20446;-66
2023/07/20 01:07:34;;;;;;;4.90;3.70;;;18.60;99.90;;;;;;5044363;28;20659;-66
2023/07/20 01:10:19;;;;;;;3.33;3.03;;;18.60;99.90;;;;;;5044100;28;20236;-66
2023/07/20 01:12:50;;;;;;;3.80;3.40;;;18.60;99.90;;;;;;5050644;28;21022;-66
2023/07/20 01:15:16;;;;;;;2.80;2.60;;;18.60;99.90;;;;;;5047689;28;20443;-66
2023/07/20 01:17:41;;;;;;;4.20;3.80;;;18.50;99.90;;;;;;5041042;28;20448;-66
2023/07/20 01:20:10;;;;;;;4.07;3.33;;;18.50;99.90;;;;;;5044341;28;20692;-66
2023/07/20 01:23:14;;;;;;;5.67;2.60;;;18.60;99.90;;;;;;5047677;28;20189;-66
2023/07/20 01:25:58;;;;;;;2.73;2.53;;;18.60;99.90;;;;;;5042281;28;20439;-66
2023/07/20 01:28:50;;;;;;;3.23;2.97;;;18.50;99.90;;;;;;5043196;28;20792;-66
2023/07/20 01:31:25;;;;;;;3.97;3.40;;;18.40;99.90;;;;;;5050510;28;20456;-66
2023/07/20 01:33:54;;;;;;;4.07;2.77;;;18.40;99.90;;;;;;5041646;28;20432;-66
2023/07/20 01:36:21;;;;;;;2.80;2.60;;;18.40;99.90;;;;;;5050378;28;20428;-66
2023/07/20 01:38:47;;;;;;;4.33;3.13;;;18.40;99.90;;;;;;5048658;28;20427;-66
2023/07/20 01:41:14;;;;;;;3.77;3.47;;;18.30;99.90;;;;;;5047587;28;20463;-66
2023/07/20 01:43:40;;;;;;;3.17;2.87;;;18.40;99.90;;;;;;5043940;28;20948;-66
2023/07/20 01:46:05;;;;;;;4.93;3.90;;;18.40;99.90;;;;;;5047354;28;20437;-66
2023/07/20 01:48:31;;;;;;;3.80;2.67;;;18.40;99.90;;;;;;5046622;28;20184;-66
2023/07/20 01:50:56;;;;;;;3.10;2.80;;;18.40;99.90;;;;;;5045916;28;20209;-66
2023/07/20 01:53:22;;;;;;;2.87;2.67;;;18.50;99.90;;;;;;5040315;28;20182;-66
2023/07/20 01:55:48;;;;;;;5.23;2.90;;;18.50;99.90;;;;;;5042933;28;20196;-66
2023/07/20 01:58:13;;;;;;;4.03;3.23;;;18.50;99.90;;;;;;5050665;28;20173;-66
2023/07/20 02:00:39;;;;;;;3.50;3.20;;;18.50;99.90;;;;;;5050277;28;20221;-66
2023/07/20 02:03:05;;;;;;;4.20;3.50;;;18.40;99.90;;;;;;5038676;28;20762;-65
2023/07/20 02:05:30;;;;;;;4.23;3.67;;;18.30;99.90;;;;;;5039931;28;20553;-65
2023/07/20 02:07:56;;;;;;;2.70;2.50;;;18.20;99.90;;;;;;5048490;28;20202;-65
2023/07/20 02:10:22;;;;;;;3.73;3.43;;;18.20;99.90;;;;;;5049969;28;20211;-66
2023/07/20 02:12:47;;;;;;;3.07;2.77;;;18.00;99.90;;;;;;5043647;28;20192;-66
2023/07/20 02:15:16;;;;;;;3.00;2.63;;;17.90;99.90;;;;;;5045547;28;20565;-66
2023/07/20 02:17:42;;;;;;;4.93;3.00;;;17.90;99.90;;;;;;5041624;28;20632;-66
2023/07/20 02:20:09;;;;;;;6.20;3.33;;;17.90;99.90;;;;;;5049912;28;20510;-66
2023/07/20 02:22:36;;;;;;;3.63;3.33;;;17.90;99.90;;;;;;5048299;28;20432;-66
2023/07/20 02:25:01;;;;;;;3.63;2.73;;;17.90;99.90;;;;;;5045613;28;20942;-66
2023/07/20 02:27:27;;;;;;;3.80;3.50;;;17.90;99.90;;;;;;5051418;28;20431;-66
2023/07/20 02:29:52;;;;;;;3.03;2.83;;;17.90;99.90;;;;;;5049624;28;20648;-66
2023/07/20 02:32:18;;;;;;;3.70;3.27;;;17.80;99.90;;;;;;5049866;28;20233;-65
2023/07/20 02:34:43;;;;;;;2.80;2.60;;;17.70;99.90;;;;;;5049383;28;20725;-66
2023/07/20 02:37:09;;;;;;;3.27;3.03;;;17.60;99.90;;;;;;5045423;28;20722;-66
2023/07/20 02:39:34;;;;;;;5.23;3.40;;;17.50;99.90;;;;;;5050809;28;20197;-66
2023/07/20 02:42:00;;;;;;;4.03;3.30;;;17.60;99.90;;;;;;5051568;28;20189;-66
2023/07/20 02:44:25;;;;;;;3.83;3.53;;;17.60;99.90;;;;;;5050096;28;20173;-66
2023/07/20 02:46:51;;;;;;;3.40;3.17;;;17.50;99.90;;;;;;5050970;28;20537;-66
2023/07/20 02:49:16;;;;;;;4.63;3.50;;;17.50;99.90;;;;;;5045692;28;20715;-66
2023/07/20 02:51:42;;;;;;;3.53;3.03;;;17.40;99.90;;;;;;5048149;28;20284;-66
2023/07/20 02:54:08;;;;;;;3.13;2.83;;;17.40;99.90;;;;;;5048315;28;20331;-66
2023/07/20 02:56:34;;;;;;;3.80;3.27;;;17.40;99.90;;;;;;5041529;28;20181;-66
2023/07/20 02:59:01;;;;;;;3.90;3.50;;;17.40;99.90;;;;;;5039382;28;20170;-66
2023/07/20 03:01:29;;;;;;;4.40;3.30;;;17.40;99.90;;;;;;5049297;28;20961;-66
2023/07/20 03:03:55;;;;;;;4.10;3.70;;;17.30;99.90;;;;;;5047439;28;20451;-66
2023/07/20 03:06:20;;;;;;;3.83;3.50;;;17.20;99.90;;;;;;5041059;28;20440;-66
2023/07/20 03:08:48;;;;;;;6.00;3.80;;;17.10;99.90;;;;;;5044816;28;20462;-66
2023/07/20 03:11:17;;;;;;;4.33;2.40;;;17.10;99.90;;;;;;5048875;28;20839;-66
2023/07/20 03:13:42;;;;;;;4.20;3.30;;;17.00;99.90;;;;;;5045733;28;20443;-66
2023/07/20 03:16:11;;;;;;;3.37;3.07;;;17.00;99.90;;;;;;5040464;28;20435;-66
2023/07/20 03:18:37;;;;;;;3.80;3.30;;;17.10;99.90;;;;;;5047020;28;20432;-66
2023/07/20 03:21:03;;;;;;;3.97;3.00;;;17.10;99.90;;;;;;5048110;28;20613;-65
2023/07/20 03:23:28;;;;;;;3.83;3.40;;;17.10;99.90;;;;;;5048386;28;20464;-66
2023/07/20 03:25:55;;;;;;;3.40;2.77;;;17.20;99.90;;;;;;5046043;28;20193;-66
2023/07/20 03:28:20;;;;;;;5.40;3.20;;;17.10;99.90;;;;;;5041651;28;20545;-66
2023/07/20 03:30:46;;;;;;;4.50;3.73;;;17.00;99.90;;;;;;5047827;28;20459;-65
2023/07/20 03:33:12;;;;;;;3.30;3.00;;;17.00;99.90;;;;;;5048985;28;20239;-66
2023/07/20 03:35:37;;;;;;;4.03;3.03;;;17.10;99.90;;;;;;5046958;28;20950;-66
2023/07/20 03:38:04;;;;;;;5.30;3.20;;;17.00;99.90;;;;;;5050402;28;20265;-66
2023/07/20 03:40:29;;;;;;;6.47;3.30;;;17.00;99.90;;;;;;5048596;28;20209;-65
2023/07/20 03:42:55;;;;;;;4.47;4.07;;;17.00;99.90;;;;;;5046098;28;20974;-66
2023/07/20 03:45:23;;;;;;;4.83;3.23;;;17.00;99.90;;;;;;5047381;28;20185;-66
2023/07/20 03:47:49;;;;;;;5.20;3.27;;;17.00;99.90;;;;;;5041164;28;20187;-66
2023/07/20 03:50:15;;;;;;;6.43;3.10;;;16.90;99.90;;;;;;5047172;28;20463;-66
2023/07/20 03:52:40;;;;;;;2.90;2.70;;;17.00;99.90;;;;;;5042860;28;20180;-66
2023/07/20 03:55:06;;;;;;;5.00;3.20;;;17.00;99.90;;;;;;5048767;28;20181;-66
2023/07/20 03:57:33;;;;;;;4.03;3.57;;;17.00;99.90;;;;;;5048054;28;20651;-66
2023/07/20 03:59:58;;;;;;;3.33;3.03;;;17.00;99.90;;;;;;5048876;28;21036;-65
2023/07/20 04:02:25;;;;;;;3.80;2.83;;;17.10;99.90;;;;;;5032679;28;20520;-66
2023/07/20 04:04:50;;;;;;;3.80;3.40;;;17.10;99.90;;;;;;5046267;28;20178;-66
2023/07/20 04:07:16;;;;;;;3.03;2.83;;;17.20;99.90;;;;;;5047325;28;20454;-66
2023/07/20 04:09:41;;;;;;;3.87;3.40;;;17.20;99.90;;;;;;5043191;28;20177;-66
2023/07/20 04:12:07;;;;;;;8.00;3.13;;;17.20;99.90;;;;;;5048212;28;20216;-66
2023/07/20 04:14:32;;;;;;;4.03;3.60;;;17.30;99.90;;;;;;5047797;28;20243;-66
2023/07/20 04:17:00;;;;;;;3.73;3.43;;;17.40;99.90;;;;;;5039474;28;20192;-66
2023/07/20 04:19:26;;;;;;;6.80;3.30;;;17.40;99.90;;;;;;5047247;28;20275;-66
2023/07/20 04:21:51;;;;;;;3.83;3.53;;;17.60;99.90;;;;;;5042610;28;20956;-66
2023/07/20 04:24:17;;;;;;;4.63;4.27;;;17.80;99.90;;;;;;5052995;28;20265;-66
2023/07/20 04:26:42;;;;;;;4.30;3.63;;;17.90;99.90;;;;;;5051659;28;20173;-66
2023/07/20 04:29:08;;;;;;;3.83;3.50;;;18.00;99.90;;;;;;5045481;28;20232;-66
2023/07/20 04:31:34;;;;;;;3.50;3.20;;;18.20;99.90;;;;;;5046619;28;20197;-66
2023/07/20 04:33:59;;;;;;;3.77;3.47;;;18.40;99.90;;;;;;5051598;28;20271;-66
2023/07/20 04:36:25;;;;;;;4.33;3.87;;;18.60;99.90;;;;;;5047874;28;20532;-66
2023/07/20 04:38:50;;;;;;;4.03;3.73;;;18.70;99.90;;;;;;5046342;28;20208;-66
2023/07/20 04:41:16;;;;;;;4.30;3.33;;;18.90;99.90;;;;;;5042064;28;20280;-66
2023/07/20 04:43:45;;;;;;;6.67;3.87;;;19.00;99.90;;;;;;5046729;28;20231;-66
2023/07/20 04:46:11;;;;;;;4.40;4.00;;;19.10;99.90;;;;;;5049131;28;20227;-66
2023/07/20 04:48:37;;;;;;;8.93;3.97;;;19.20;99.90;;;;;;5050358;28;21820;-66
2023/07/20 04:51:03;;;;;;;3.77;3.17;;;19.40;99.90;;;;;;5051216;28;20205;-66
2023/07/20 04:53:28;;;;;;;4.23;3.13;;;19.50;99.90;;;;;;5052734;28;20561;-66
2023/07/20 04:55:54;;;;;;;3.73;3.07;;;19.60;99.90;;;;;;5041046;28;20429;-66
2023/07/20 04:58:21;;;;;;;3.57;3.27;;;19.70;99.90;;;;;;5048815;28;20193;-67
2023/07/20 05:00:48;;;;;;;3.03;2.73;;;19.60;99.90;;;;;;5049453;28;20217;-67
2023/07/20 05:03:14;;;;;;;3.23;2.93;;;19.60;99.90;;;;;;5043494;28;20424;-66
2023/07/20 05:05:40;;;;;;;3.40;3.10;;;19.50;99.90;;;;;;5049880;28;20475;-67
2023/07/20 05:08:05;;;;;;;3.87;3.40;;;19.60;99.90;;;;;;5050134;28;20212;-68
2023/07/20 05:10:32;;;;;;;3.97;3.23;;;19.60;99.90;;;;;;5050413;28;20748;-67
2023/07/20 05:12:58;;;;;;;3.20;2.90;;;19.60;99.90;;;;;;5041691;28;20193;-66
2023/07/20 05:15:23;;;;;;;3.40;3.10;;;19.60;99.90;;;;;;5047854;28;20510;-67
2023/07/20 05:17:49;;;;;;;7.83;4.17;;;19.60;99.90;;;;;;5049569;28;20526;-66
2023/07/20 05:20:15;;;;;;;5.00;3.33;;;19.80;99.90;;;;;;5044629;28;20201;-66
2023/07/20 05:22:40;;;;;;;3.60;2.90;;;20.00;99.90;;;;;;5049798;28;20184;-66
2023/07/20 05:25:08;;;;;;;3.83;3.30;;;20.00;99.90;;;;;;5048292;28;20192;-66
2023/07/20 05:27:34;;;;;;;6.70;3.40;;;19.90;99.90;;;;;;5052600;28;20727;-66
2023/07/20 05:30:00;;;;;;;3.70;3.30;;;19.90;99.90;;;;;;5045629;28;20439;-66
2023/07/20 05:32:26;;;;;;;4.20;3.80;;;19.90;99.90;;;;;;5041287;28;20453;-66
2023/07/20 05:34:52;;;;;;;4.13;3.07;;;19.80;99.90;;;;;;5049202;28;20185;-66
2023/07/20 05:37:18;;;;;;;3.60;2.97;;;19.90;99.90;;;;;;5052078;28;20259;-66
2023/07/20 05:39:43;;;;;;;3.30;3.10;;;19.90;99.90;;;;;;5052076;28;21022;-66
2023/07/20 05:42:09;;;;;;;3.43;3.20;;;20.00;99.90;;;;;;5049058;28;20190;-66
2023/07/20 05:44:34;;;;;;;3.80;3.30;;;20.10;99.90;;;;;;5043546;28;20181;-66
2023/07/20 05:47:00;;;;;;;4.63;3.50;;;20.00;99.90;;;;;;5033512;28;20166;-66
2023/07/20 05:49:25;;;;;;;6.30;4.13;;;20.10;99.90;;;;;;5033530;28;20659;-66
2023/07/20 05:51:51;;;;;;;5.10;3.30;;;20.40;99.90;;;;;;5039794;28;20579;-67
2023/07/20 05:54:16;;;;;;;4.23;3.47;;;20.50;99.90;;;;;;5043921;28;20186;-66
2023/07/20 05:56:42;;;;;;;3.20;2.90;;;20.60;99.90;;;;;;5041838;28;20706;-66
2023/07/20 05:59:08;;;;;;;6.13;3.90;;;20.70;99.90;;;;;;5033184;28;20261;-66
2023/07/20 06:01:33;;;;;;;3.67;3.37;;;20.50;99.90;;;;;;5038914;28;20666;-66
2023/07/20 06:03:59;;;;;;;4.90;3.70;;;20.50;99.90;;;;;;5042064;28;20178;-66
2023/07/20 06:06:25;;;;;;;2.93;2.60;;;20.50;99.90;;;;;;5046826;28;20216;-66
2023/07/20 06:08:51;;;;;;;5.77;3.30;;;20.60;99.90;;;;;;5033045;28;20202;-66
2023/07/20 06:11:17;;;;;;;3.80;3.43;;;20.70;99.90;;;;;;5036266;28;20499;-66
2023/07/20 06:13:43;;;;;;;3.40;3.10;;;20.80;99.90;;;;;;5042671;28;20525;-66
2023/07/20 06:16:09;;;;;;;7.17;4.10;;;20.80;99.90;;;;;;5044081;28;20436;-66
2023/07/20 06:18:34;;;;;;;2.77;2.57;;;20.90;99.90;;;;;;5035905;28;20421;-66
2023/07/20 06:20:59;;;;;;;4.03;3.23;;;20.80;99.90;;;;;;5032998;28;20209;-68
2023/07/20 06:23:25;;;;;;;3.63;3.10;;;20.70;99.90;;;;;;5039766;28;20173;-68
2023/07/20 06:25:50;;;;;;;2.60;2.40;;;20.70;99.90;;;;;;5048367;28;20546;-68
2023/07/20 06:28:17;;;;;;;3.50;2.90;;;20.70;99.90;;;;;;5052602;28;20192;-68
2023/07/20 06:30:43;;;;;;;3.13;2.83;;;20.70;99.90;;;;;;5038588;28;20190;-68
2023/07/20 06:33:08;;;;;;;3.97;3.07;;;20.70;99.90;;;;;;5042162;28;20992;-69
2023/07/20 06:35:35;;;;;;;4.43;3.37;;;20.80;99.90;;;;;;5035778;28;20174;-69
2023/07/20 06:38:03;;;;;;;3.93;3.53;;;20.90;99.90;;;;;;5032118;28;20173;-68
2023/07/20 06:40:30;;;;;;;5.10;3.20;;;21.20;99.90;;;;;;5032312;28;20471;-68
2023/07/20 06:42:56;;;;;;;4.83;2.90;;;21.60;99.90;;;;;;5039276;28;21017;-68
2023/07/20 06:45:21;;;;;;;3.13;2.83;;;21.70;99.90;;;;;;5037393;28;20511;-68
2023/07/20 06:47:47;;;;;;;4.30;2.47;;;21.80;99.90;;;;;;5032578;28;20182;-68
2023/07/20 06:50:12;;;;;;;4.40;2.90;;;21.80;99.90;;;;;;5032126;28;20193;-68
2023/07/20 06:52:39;;;;;;;9.57;3.43;;;22.10;99.90;;;;;;5035715;28;20289;-68
2023/07/20 06:55:06;;;;;;;4.40;3.30;;;22.00;99.90;;;;;;5039513;28;20173;-68
2023/07/20 06:57:32;;;;;;;2.87;2.67;;;22.10;99.90;;;;;;5032389;28;20506;-72
2023/07/20 06:59:57;;;;;;;3.63;3.07;;;22.20;99.90;;;;;;5031965;28;20903;-67
2023/07/20 07:02:23;;;;;;;3.37;3.07;;;22.50;99.90;;;;;;5034769;28;20194;-67
2023/07/20 07:04:48;;;;;;;6.73;2.93;;;22.60;99.90;;;;;;5040419;28;20248;-67
2023/07/20 07:07:14;;;;;;;6.63;2.90;;;22.80;98.50;;;;;;5032064;28;20546;-67
2023/07/20 07:09:41;;;;;;;3.40;3.10;;;23.20;98.40;;;;;;5032153;28;20175;-67
2023/07/20 07:12:07;;;;;;;2.87;2.60;;;23.30;96.40;;;;;;5034115;28;20472;-67
2023/07/20 07:14:32;;;;;;;3.20;2.97;;;23.40;96.50;;;;;;5040227;28;20432;-67
2023/07/20 07:16:58;;;;;;;6.17;3.30;;;23.10;96.90;;;;;;5040866;28;20428;-67
2023/07/20 07:19:23;;;;;;;5.53;3.27;;;23.00;96.90;;;;;;5051677;28;20206;-67
2023/07/20 07:21:49;;;;;;;5.03;3.20;;;23.00;97.10;;;;;;5047734;28;20213;-68
2023/07/20 07:24:14;;;;;;;5.20;3.07;;;22.90;96.80;;;;;;5040196;28;20193;-67
2023/07/20 07:26:40;;;;;;;5.27;3.30;;;23.30;96.60;;;;;;5032134;28;20174;-68
2023/07/20 07:29:05;;;;;;;3.47;3.17;;;23.30;95.40;;;;;;5031592;28;20655;-67
2023/07/20 07:31:35;;;;;;;3.10;2.90;;;23.50;95.80;;;;;;5032451;28;20186;-68
2023/07/20 07:34:00;;;;;;;4.73;3.00;;;23.60;95.40;;;;;;5044154;28;20193;-67
2023/07/20 07:36:25;;;;;;;3.70;3.17;;;23.80;94.20;;;;;;5051575;28;20424;-67
2023/07/20 07:38:51;;;;;;;4.93;3.03;;;24.30;93.20;;;;;;5051514;28;20170;-68
2023/07/20 07:41:17;;;;;;;7.23;3.20;;;24.50;92.00;;;;;;5051590;28;20205;-68
2023/07/20 07:43:42;;;;;;;10.10;3.90;;;24.50;92.20;;;;;;5040159;28;20185;-67
2023/07/20 07:46:08;;;;;;;3.93;3.37;;;24.40;91.20;;;;;;5039926;28;20185;-67
2023/07/20 07:48:34;;;;;;;5.03;3.50;;;24.30;91.60;;;;;;5031520;28;20413;-67
2023/07/20 07:50:59;;;;;;;3.97;2.90;;;24.20;91.40;;;;;;5031427;28;20287;-67
2023/07/20 07:53:25;;;;;;;3.03;2.83;;;24.10;91.50;;;;;;5046524;28;20648;-67
2023/07/20 07:55:52;;;;;;;6.00;3.77;;;24.30;90.80;;;;;;5042519;28;20186;-67
2023/07/20 07:58:17;;;;;;;3.10;2.90;;;24.00;90.20;;;;;;5035426;28;20786;-67
2023/07/20 08:00:44;;;;;;;5.00;3.30;;;23.50;91.40;;;;;;5035600;28;20469;-67
2023/07/20 08:03:09;;;;;;;4.50;3.23;;;23.10;93.10;;;;;;5039607;28;20174;-67
2023/07/20 08:05:35;;;;;;;5.17;3.97;;;23.20;92.60;;;;;;5046411;28;20424;-67
2023/07/20 08:08:03;;;;;;;3.50;3.20;;;23.50;92.40;;;;;;5035521;28;20178;-67
2023/07/20 08:10:29;;;;;;;2.93;2.70;;;23.60;92.00;;;;;;5035092;28;20210;-67
2023/07/20 08:12:54;;;;;;;5.63;3.57;;;24.10;91.90;;;;;;5036573;28;20416;-67
2023/07/20 08:15:20;;;;;;;4.57;3.17;;;24.70;88.30;;;;;;5047101;28;20555;-68
2023/07/20 08:17:45;;;;;;;3.30;3.00;;;24.80;87.30;;;;;;5036783;28;20181;-67
2023/07/20 08:20:13;;;;;;;4.03;3.27;;;24.80;87.00;;;;;;5034880;28;20202;-67
2023/07/20 08:22:39;;;;;;;3.27;2.97;;;24.70;87.00;;;;;;5035335;28;20544;-68
2023/07/20 08:25:06;;;;;;;3.93;3.13;;;24.70;88.30;;;;;;5045424;28;20956;-67
2023/07/20 08:27:31;;;;;;;3.33;2.53;;;25.00;84.30;;;;;;5038481;28;20993;-67
2023/07/20 08:29:57;;;;;;;2.93;2.60;;;25.70;82.00;;;;;;5034969;28;20500;-68
2023/07/20 08:32:22;;;;;;;3.80;3.13;;;25.90;79.20;;;;;;5041793;28;20194;-67
2023/07/20 08:34:48;;;;;;;4.33;3.10;;;25.90;77.40;;;;;;5043165;28;20308;-67
2023/07/20 08:37:13;;;;;;;5.27;3.03;;;26.00;74.60;;;;;;5035029;28;20174;-67
2023/07/20 08:39:39;;;;;;;3.30;3.00;;;26.40;70.80;;;;;;5034678;28;20224;-68
2023/07/20 08:42:06;;;;;;;7.50;3.10;;;26.60;69.70;;;;;;5040301;28;20668;-68
2023/07/20 08:44:36;;;;;;;3.27;2.90;;;26.20;70.80;;;;;;5045620;28;20178;-68
2023/07/20 08:47:03;;;;;;;3.30;3.10;;;25.70;72.10;;;;;;5033906;28;20428;-69
2023/07/20 08:49:31;;;;;;;3.37;3.07;;;25.40;73.10;;;;;;5034329;28;20420;-67
2023/07/20 08:51:57;;;;;;;4.00;3.50;;;25.60;74.50;;;;;;5039469;28;20476;-67
2023/07/20 08:54:24;;;;;;;5.60;4.23;;;25.80;73.40;;;;;;5042852;28;20490;-68
2023/07/20 08:56:50;;;;;;;3.43;2.63;;;25.80;73.20;;;;;;5034725;28;20491;-67
2023/07/20 08:59:17;;;;;;;3.40;2.87;;;25.90;72.60;;;;;;5044098;28;20428;-67
2023/07/20 09:01:45;;;;;;;7.10;3.87;;;26.40;73.20;;;;;;5051891;28;20476;-67
2023/07/20 09:04:11;;;;;;;4.07;3.27;;;27.20;68.80;;;;;;5042973;28;20428;-68
2023/07/20 09:06:37;;;;;;;5.83;3.30;;;28.00;67.70;;;;;;5054108;28;20423;-67
2023/07/20 09:09:03;;;;;;;3.50;2.87;;;27.90;63.90;;;;;;5054083;28;20427;-68
2023/07/20 09:11:28;;;;;;;3.17;2.87;;;27.70;64.20;;;;;;5053503;28;20459;-68
2023/07/20 09:14:05;;;;;;;3.33;2.90;;;27.80;62.90;;;;;;5042418;28;20159;-68
2023/07/20 09:16:30;;;;;;;4.70;2.97;;;28.10;63.10;;;;;;5033938;28;20181;-68
2023/07/20 09:18:58;;;;;;;3.10;2.90;;;28.30;60.50;;;;;;5033959;28;20409;-68
2023/07/20 09:21:28;;;;;;;5.30;2.87;;;27.60;61.20;;;;;;5037207;28;20201;-68
2023/07/20 09:23:57;;;;;;;2.93;2.67;;;27.30;58.70;;;;;;5042659;28;21069;-68
2023/07/20 09:26:22;;;;;;;4.43;2.80;;;27.20;59.90;;;;;;5034115;28;20416;-68
2023/07/20 09:28:55;;;;;;;9.20;4.00;;;27.00;60.10;;;;;;5035992;28;20432;-69
2023/07/20 09:31:22;;;;;;;2.60;2.40;;;27.40;58.40;;;;;;5035066;28;20598;-69
2023/07/20 09:33:48;;;;;;;8.83;3.13;;;27.10;59.40;;;;;;5041109;28;20424;-69
2023/07/20 09:36:14;;;;;;;2.90;2.67;;;26.60;60.70;;;;;;5054002;28;20419;-68
2023/07/20 09:38:42;;;;;;;5.20;2.90;;;26.10;62.30;;;;;;5053407;28;20420;-68
2023/07/20 09:41:08;;;;;;;4.33;2.77;;;25.70;63.00;;;;;;5052972;28;20220;-68
2023/07/20 09:43:37;;;;;;;3.23;2.93;;;25.30;63.90;;;;;;5044897;28;20428;-68
2023/07/20 09:46:02;;;;;;;4.73;2.47;;;25.00;63.90;;;;;;5033755;28;20158;-68
2023/07/20 09:48:29;;;;;;;2.90;2.40;;;24.90;63.20;;;;;;5033389;28;20444;-68
2023/07/20 09:50:56;;;;;;;3.13;2.83;;;25.20;63.30;;;;;;5033357;28;20194;-71
2023/07/20 09:53:25;;;;;;;4.63;2.70;;;26.10;61.90;;;;;;5043821;28;20443;-68
2023/07/20 09:55:51;;;;;;;2.53;2.33;;;26.80;60.30;;;;;;5033883;28;21069;-68
2023/07/20 09:58:17;;;;;;;4.13;2.10;;;28.00;58.20;;;;;;5033492;28;20441;-68
2023/07/20 10:00:49;;;;;;;2.50;2.30;;;28.50;56.30;;;;;;5033372;28;20521;-68
2023/07/20 10:03:19;;;;;;;2.63;2.40;;;28.40;55.80;;;;;;5040510;28;20622;-68
2023/07/20 10:05:51;;;;;;;6.40;3.17;;;28.30;55.50;;;;;;5041614;28;20429;-68
2023/07/20 10:08:18;;;;;;;3.13;2.80;;;28.30;55.50;;;;;;5038888;28;20994;-68
2023/07/20 10:10:45;;;;;;;2.60;2.40;;;28.00;55.10;;;;;;5035771;28;20460;-68
2023/07/20 10:13:25;;;;;;;4.20;2.27;;;27.20;55.20;;;;;;5041028;28;20439;-68
2023/07/20 10:15:55;;;;;;;2.10;2.00;;;27.50;56.10;;;;;;5041800;28;20963;-67
2023/07/20 10:18:51;;;;;;;2.80;2.20;;;27.80;54.00;;;;;;5036949;28;20432;-68
2023/07/20 10:21:22;;;;;;;3.10;2.55;;;27.60;54.30;;;;;;5041280;28;20508;-68
2023/07/20 10:23:48;;;;;;;4.10;3.20;;;27.90;55.30;;;;;;5038833;28;20190;-67
2023/07/20 10:26:14;;;;;;;3.10;2.80;;;29.50;53.80;;;;;;5038364;28;20428;-68
2023/07/20 10:28:40;;;;;;;2.70;2.50;;;30.50;50.80;;;;;;5032768;28;20182;-67
2023/07/20 10:31:09;;;;;;;2.83;2.10;;;30.50;50.10;;;;;;5032677;28;20190;-67
2023/07/20 10:33:35;;;;;;;3.23;2.80;;;31.40;48.40;;;;;;5041477;28;20182;-67
2023/07/20 10:36:05;;;;;;;2.60;2.40;;;31.90;48.60;;;;;;5052932;28;20427;-68
2023/07/20 10:38:40;;;;;;;2.60;2.40;;;32.70;46.00;;;;;;5052421;28;20427;-68
2023/07/20 10:41:17;;;;;;;2.53;2.13;;;32.60;44.20;;;;;;5049494;28;20836;-68
2023/07/20 10:43:44;;;;;;;2.70;2.40;;;33.90;42.90;;;;;;5041941;28;20515;-68
2023/07/20 10:46:11;;;;;;;2.87;2.50;;;35.20;41.20;;;;;;5035348;28;20456;-68
2023/07/20 10:49:04;;;;;;;3.23;2.40;;;33.20;39.90;;;;;;5040426;28;20504;-68
2023/07/20 10:51:30;;;;;;;4.80;2.67;;;32.00;41.30;;;;;;5034069;28;20448;-68
2023/07/20 10:53:58;;;;;;;2.13;1.97;;;31.10;42.30;;;;;;5040694;28;20413;-68
2023/07/20 10:56:29;;;;;;;2.93;2.40;;;30.30;43.30;;;;;;5032307;28;20416;-68
2023/07/20 10:58:59;;;;;;;1.90;1.80;;;30.10;43.10;;;;;;5032313;28;20831;-68
2023/07/20 11:01:35;;;;;;;3.50;2.70;;;30.40;43.30;;;;;;5032949;28;20539;-68
2023/07/20 11:04:01;;;;;;;2.83;2.53;;;31.80;41.00;;;;;;5044692;28;20408;-68
2023/07/20 11:06:26;;;;;;;2.47;2.37;;;34.20;39.50;;;;;;5052234;28;20760;-69
2023/07/20 11:09:07;;;;;;;2.60;2.40;;;35.70;37.20;;;;;;5051767;28;20165;-68
2023/07/20 11:11:39;;;;;;;3.20;2.43;;;37.10;33.80;;;;;;5051389;28;20240;-68
2023/07/20 11:14:25;;;;;;;2.73;1.73;;;37.50;32.80;;;;;;5040160;28;20417;-68
2023/07/20 11:16:52;;;;;;;2.10;2.00;;;36.00;32.30;;;;;;5032053;28;20487;-68
2023/07/20 11:19:20;;;;;;;3.27;2.13;;;35.40;33.20;;;;;;5031560;28;20421;-68
2023/07/20 11:21:49;;;;;;;4.80;2.60;;;34.10;33.40;;;;;;5035128;28;20953;-68
2023/07/20 11:24:15;;;;;;;2.07;1.97;;;33.00;34.70;;;;;;5043503;28;20971;-68
2023/07/20 11:26:50;;;;;;;2.67;2.47;;;31.80;35.70;;;;;;5051856;28;20416;-68
2023/07/20 11:29:18;;;;;;;2.37;2.10;;;31.90;35.50;;;;;;5050666;28;20674;-68
2023/07/20 11:31:45;;;;;;;2.73;2.00;;;31.80;36.60;;;;;;5048754;28;20455;-68
2023/07/20 11:34:12;;;;;;;2.30;2.10;;;32.00;35.70;;;;;;5039951;28;20508;-68
2023/07/20 11:36:41;;;;;;;1.80;1.70;;;31.30;35.50;;;;;;5031844;28;20419;-68
2023/07/20 11:39:08;;;;;;;2.13;2.03;;;31.50;36.00;;;;;;5031505;28;20518;-69
2023/07/20 11:41:34;;;;;;;2.27;2.00;;;32.20;34.70;;;;;;5032371;28;20523;-68
2023/07/20 11:44:00;;;;;;;2.80;2.10;;;34.30;33.40;;;;;;5043297;28;20919;-69
2023/07/20 11:46:30;;;;;;;2.20;2.00;;;35.90;32.00;;;;;;5051452;28;20507;-68
2023/07/20 11:49:01;;;;;;;2.27;2.17;;;36.60;30.60;;;;;;5051588;28;20418;-69
2023/07/20 11:51:32;;;;;;;2.10;1.90;;;38.60;29.50;;;;;;5051479;28;20838;-69
2023/07/20 11:53:58;;;;;;;2.20;1.93;;;38.20;28.80;;;;;;5043212;28;20439;-68
2023/07/20 11:56:25;;;;;;;1.97;1.87;;;37.20;28.80;;;;;;5036124;28;20917;-68
2023/07/20 11:58:54;;;;;;;1.93;1.83;;;36.50;29.30;;;;;;5031201;28;20173;-68
2023/07/20 12:01:20;;;;;;;2.10;2.00;;;36.50;29.30;;;;;;5031494;28;20903;-68
2023/07/20 12:03:47;;;;;;;2.27;1.80;;;38.10;28.60;;;;;;5040744;28;20432;-68
2023/07/20 12:06:13;;;;;;;2.60;2.50;;;39.40;27.40;;;;;;5037347;28;20938;-68
2023/07/20 12:08:43;;;;;;;2.17;2.07;;;38.40;26.50;;;;;;5031421;28;20539;-68
2023/07/20 12:11:08;;;;;;;4.90;2.20;;;37.50;26.70;;;;;;5031352;28;20463;-68
2023/07/20 12:13:44;;;;;;;2.57;2.40;;;36.90;27.70;;;;;;5038354;28;20523;-68
2023/07/20 12:16:14;;;;;;;2.47;2.13;;;36.60;27.80;;;;;;5037839;28;20170;-68
2023/07/20 12:18:40;;;;;;;2.00;1.90;;;35.80;28.30;;;;;;5031209;28;20793;-67
2023/07/20 12:21:07;;;;;;;2.80;2.00;;;36.40;28.30;;;;;;5031333;28;20461;-68
2023/07/20 12:23:40;;;;;;;2.10;1.83;;;36.30;27.90;;;;;;5037565;28;20433;-68
2023/07/20 12:26:10;;;;;;;3.73;1.97;;;35.10;28.50;;;;;;5048656;28;20515;-68
2023/07/20 12:28:43;;;;;;;2.27;2.03;;;34.90;28.70;;;;;;5042808;28;20803;-67
2023/07/20 12:31:10;;;;;;;2.33;1.80;;;35.30;28.80;;;;;;5051066;28;20443;-68
2023/07/20 12:33:36;;;;;;;1.77;1.67;;;35.40;27.60;;;;;;5043725;28;20432;-68
2023/07/20 12:36:02;;;;;;;2.10;2.00;;;34.70;28.50;;;;;;5043413;28;20432;-68
2023/07/20 12:38:28;;;;;;;3.80;2.83;;;35.00;28.70;;;;;;5050658;28;20434;-67
2023/07/20 12:40:56;;;;;;;3.90;2.87;;;36.30;28.00;;;;;;5051532;28;20205;-67
2023/07/20 12:43:22;;;;;;;2.50;2.30;;;38.30;27.30;;;;;;5047111;28;20182;-67
2023/07/20 12:45:48;;;;;;;2.40;2.30;;;38.80;26.70;;;;;;5043041;28;20466;-67
2023/07/20 12:48:13;;;;;;;2.70;2.50;;;40.70;26.00;;;;;;5034570;28;20261;-68